Terminal Aerodrome Forecast
Issued by NWS

Home | Current Version | Previous Version | Graphics & Text | Print | Product List | Glossary On
Versions: 1 2 3 4 5 6 7 8 9 10 11 12 13 14 15 16 17 18 19 20
906
FTUS43 KTOP 190231 AAB
TAFFOE
TAF AMD
KFOE 190231Z 1903/1924 10013KT P6SM BKN100
     FM190800 11006KT P6SM VCTS OVC090CB
      TEMPO 1908/1912 VRB08G35KT 3SM TS SCT040 BKN070CB
     FM191500 12014G20KT P6SM BKN040
     FM192100 13012G18KT P6SM VCTS BKN040CB=

USA.gov is the U.S. government's official web portal to all federal, state and local government web resources and services.